»·PEaware :: N478G KPSP-KTNP

N478G :: KPSP-KTNP

FLIGHT INFORMATION

Flight Status: Arrived
Operator: Privately registered:
United States
More flights under this callsign
Pilot: Matthew P. (24364)
Aircraft: CESSNA 172 SKYHAWK
(C172)
More flights by this aircraft type
Origin: KPSP Palm Springs Intl
United States
Destination: KTNP Twentynine Palms
United States
More flights between these airports :: More routes between these airports
Route:
File this flight plan on PilotEdge
Remarks:
Altitude:
(Current/Filed)
5,500ft
Speed:
(Current/Filed)
120kts
Departed: 28-Apr-19 09:27 PM
Arrived: 28-Apr-19 09:51 PM
Distance/Time
Traveled:
33nm/0:24
Distance/Time
To Go:
Arrived

Flight Plot

Page will automatically refresh every two minutes.


Map Options




Map Legend


Flown Route
Filed Route
Departure Airport
Arrival Airport
Navaid (VOR, NDB)
Fix

Horizontal Profiles

Position Reports

Time Latitude Longitude Heading Altitude Ground
Speed
28-Apr-19 20:59 33.827159 -116.501024 203 406ft 0kts
28-Apr-19 21:00 33.827159 -116.501024 203 406ft 0kts
28-Apr-19 21:01 33.827159 -116.501024 203 406ft 0kts
28-Apr-19 21:02 33.827159 -116.501024 203 407ft 0kts
28-Apr-19 21:03 33.827159 -116.501024 203 407ft 0kts
28-Apr-19 21:04 33.827159 -116.501024 203 407ft 0kts
28-Apr-19 21:05 33.827159 -116.501024 203 407ft 0kts
28-Apr-19 21:06 33.827159 -116.501024 203 407ft 0kts
28-Apr-19 21:07 33.827159 -116.501024 203 407ft 0kts
28-Apr-19 21:08 33.827159 -116.501024 203 407ft 0kts
28-Apr-19 21:09 33.827159 -116.501024 203 407ft 0kts
28-Apr-19 21:10 33.827159 -116.501024 203 407ft 0kts
28-Apr-19 21:11 33.827159 -116.501024 203 407ft 0kts
28-Apr-19 21:12 33.827159 -116.501024 203 407ft 0kts
28-Apr-19 21:13 33.827159 -116.501024 203 407ft 0kts
28-Apr-19 21:13 33.827159 -116.501024 203 407ft 0kts
28-Apr-19 21:15 33.827159 -116.501024 203 407ft 0kts
28-Apr-19 21:16 33.827159 -116.501024 203 407ft 0kts
28-Apr-19 21:16 33.827159 -116.501024 203 407ft 0kts
28-Apr-19 21:17 33.827159 -116.501024 203 407ft 0kts
28-Apr-19 21:19 33.827159 -116.501024 203 407ft 0kts
28-Apr-19 21:19 33.827159 -116.501024 203 407ft 0kts
28-Apr-19 21:20 33.827159 -116.501024 203 407ft 0kts
28-Apr-19 21:21 33.827159 -116.501024 203 407ft 0kts
28-Apr-19 21:22 33.826575 -116.501042 147 406ft 15kts
28-Apr-19 21:23 33.824645 -116.499564 237 401ft 0kts
28-Apr-19 21:24 33.824645 -116.499564 237 401ft 0kts
28-Apr-19 21:25 33.824814 -116.500516 321 403ft 20kts
28-Apr-19 21:26 33.841527 -116.515231 334 924ft 89kts
28-Apr-19 21:27 33.863491 -116.501204 42 1662ft 101kts
28-Apr-19 21:28 33.864896 -116.470012 108 2392ft 102kts
28-Apr-19 21:29 33.854204 -116.437466 107 2989ft 114kts
28-Apr-19 21:30 33.846488 -116.402500 101 3415ft 106kts
28-Apr-19 21:31 33.844647 -116.367540 77 3732ft 101kts
28-Apr-19 21:32 33.853707 -116.334627 54 3997ft 103kts
28-Apr-19 21:33 33.869077 -116.304603 62 4247ft 108kts
28-Apr-19 21:34 33.877214 -116.270043 59 4646ft 107kts
28-Apr-19 21:35 33.893883 -116.240865 58 5180ft 108kts
28-Apr-19 21:36 33.911814 -116.211642 42 5785ft 110kts
28-Apr-19 21:37 33.935709 -116.188495 31 6364ft 111kts
28-Apr-19 21:38 33.964229 -116.168517 29 6595ft 121kts
28-Apr-19 21:39 33.992078 -116.145024 35 6722ft 124kts
28-Apr-19 21:40 34.017537 -116.116305 43 6797ft 126kts
28-Apr-19 21:41 34.040400 -116.083774 67 6703ft 130kts
28-Apr-19 21:42 34.056532 -116.043068 62 6236ft 142kts
28-Apr-19 21:43 34.076845 -116.000672 53 5446ft 153kts
28-Apr-19 21:44 34.103758 -115.960052 51 4256ft 154kts
28-Apr-19 21:45 34.114974 -115.916678 89 3401ft 115kts
28-Apr-19 21:46 34.118349 -115.880904 45 3067ft 93kts
28-Apr-19 21:47 34.136041 -115.882537 258 2836ft 72kts
28-Apr-19 21:48 34.134725 -115.908362 270 2402ft 79kts
28-Apr-19 21:49 34.134424 -115.933456 265 1941ft 70kts
28-Apr-19 21:50 34.134385 -115.946832 267 1891ft 8kts
28-Apr-19 21:51 34.135349 -115.945031 63 1891ft 9kts
28-Apr-19 21:52 34.135545 -115.944706 12 1891ft 0kts
28-Apr-19 21:53 34.135545 -115.944706 12 1891ft 0kts
28-Apr-19 21:54 34.135545 -115.944706 12 1891ft 0kts

Navigation Log

Ident Type
Flight plan parsing failed, navigation log unavailable